Wind Gap, Pennsylvania
Current Conditions -  °F | °C
As of 5:51 PM on Thursday 23 Oct 2014 (Local Time) from KABE Reporting Station
Overcast Overcast  
Wind Chill: 53°   Ceiling: 8500
Heat Index: 53°   Visibility: 10mi
Dew Point: 43°   Wind: 12mph
Humidity: 69%   Direction: 340°NNW
Pressure: 29.81"   Gusts: 22mph
Location:  40.85°N, 75.29°W
Report Text: KABE 232151Z 34010G19KT 10SM FEW050 OVC085 12/06 A2981 RMK AO2 PK WND 33026/2056 SLP094 T01170061
Loading
Personal Weather Stations






























Interactive Weather Map
Tropical Storm Tracking
New forecast layout! Learn more

10-Day Weather Forecast

Advertisements
Track Severe Weather on mobile